createdAt,value
2023-04-28T00:00:21.985Z,2.40
2023-04-28T00:02:49.378Z,1.90
2023-04-28T00:05:19.247Z,2.00
2023-04-28T00:07:47.301Z,1.90
2023-04-28T00:10:17.927Z,1.80
2023-04-28T00:12:44.926Z,2.10
2023-04-28T00:15:13.619Z,1.90
2023-04-28T00:17:43.719Z,2.30
2023-04-28T00:20:13.306Z,1.90
2023-04-28T00:22:43.354Z,2.10
2023-04-28T00:25:13.486Z,1.90
2023-04-28T00:27:42.505Z,1.90
2023-04-28T00:30:10.062Z,2.00
2023-04-28T00:32:37.764Z,1.90
2023-04-28T00:35:07.392Z,1.90
2023-04-28T00:37:39.372Z,2.30
2023-04-28T00:40:09.253Z,2.00
2023-04-28T00:42:38.810Z,2.00
2023-04-28T00:45:06.724Z,1.80
2023-04-28T00:47:34.691Z,2.20
2023-04-28T00:50:02.385Z,2.20
2023-04-28T00:52:29.919Z,2.30
2023-04-28T00:54:56.969Z,2.20
2023-04-28T00:57:24.072Z,2.00
2023-04-28T00:59:51.107Z,2.10
2023-04-28T01:02:20.424Z,2.10
2023-04-28T01:04:47.612Z,2.20
2023-04-28T01:07:17.149Z,2.30
2023-04-28T01:09:47.238Z,2.20
2023-04-28T01:12:15.002Z,2.70
2023-04-28T01:14:45.367Z,1.90
2023-04-28T01:17:13.442Z,2.00
2023-04-28T01:19:41.132Z,2.60
2023-04-28T01:22:11.072Z,2.20
2023-04-28T01:24:38.112Z,2.20
2023-04-28T01:27:06.953Z,2.30
2023-04-28T01:29:34.805Z,2.10
2023-04-28T01:32:02.475Z,2.30
2023-04-28T01:34:31.780Z,2.00
2023-04-28T01:36:58.792Z,2.20
2023-04-28T01:39:25.825Z,2.00
2023-04-28T01:41:52.835Z,2.10
2023-04-28T01:44:19.939Z,2.00
2023-04-28T01:46:48.746Z,2.30
2023-04-28T01:49:15.799Z,2.00
2023-04-28T01:51:43.233Z,2.00
2023-04-28T01:54:10.752Z,2.10
2023-04-28T01:56:39.156Z,2.00
2023-04-28T01:59:08.823Z,1.80
2023-04-28T02:01:36.242Z,2.20
2023-04-28T02:04:03.601Z,2.10
2023-04-28T02:06:33.835Z,2.30
2023-04-28T02:09:01.173Z,2.10
2023-04-28T02:11:28.233Z,2.30
2023-04-28T02:13:57.500Z,2.00
2023-04-28T02:16:24.675Z,1.70
2023-04-28T02:18:51.990Z,1.80
2023-04-28T02:21:19.583Z,2.10
2023-04-28T02:23:46.764Z,2.30
2023-04-28T02:26:14.294Z,2.10
2023-04-28T02:28:44.450Z,2.00
2023-04-28T02:31:12.339Z,1.80
2023-04-28T02:33:39.466Z,1.90
2023-04-28T02:36:10.700Z,1.90
2023-04-28T02:38:37.699Z,2.00
2023-04-28T02:41:06.945Z,2.10
2023-04-28T02:43:35.504Z,2.60
2023-04-28T02:46:05.988Z,2.30
2023-04-28T02:48:35.677Z,2.40
2023-04-28T02:51:02.846Z,2.00
2023-04-28T02:53:31.413Z,2.30
2023-04-28T02:55:59.691Z,1.80
2023-04-28T02:58:27.268Z,2.10
2023-04-28T03:00:54.682Z,2.00
2023-04-28T03:03:23.427Z,2.20
2023-04-28T03:05:53.187Z,2.10
2023-04-28T03:08:21.271Z,2.00
2023-04-28T03:10:49.378Z,2.00
2023-04-28T03:13:17.826Z,1.80
2023-04-28T03:15:47.142Z,2.60
2023-04-28T03:18:14.302Z,2.00
2023-04-28T03:20:41.368Z,1.90
2023-04-28T03:23:09.358Z,2.00
2023-04-28T03:25:36.542Z,2.20
2023-04-28T03:28:04.242Z,2.10
2023-04-28T03:30:31.505Z,1.80
2023-04-28T03:32:58.726Z,2.30
2023-04-28T03:35:25.794Z,1.90
2023-04-28T03:37:52.806Z,1.80
2023-04-28T03:40:21.656Z,1.80
2023-04-28T03:43:09.770Z,2.20
2023-04-28T03:45:43.291Z,2.20
2023-04-28T03:48:10.780Z,1.80
2023-04-28T03:50:37.979Z,2.10
2023-04-28T03:53:05.467Z,2.00
2023-04-28T03:55:33.123Z,1.90
2023-04-28T03:58:02.034Z,1.70
2023-04-28T04:00:29.915Z,2.10
2023-04-28T04:02:57.398Z,1.90
2023-04-28T04:05:25.090Z,2.10
2023-04-28T04:07:53.508Z,1.70
2023-04-28T04:10:20.855Z,1.90
2023-04-28T04:12:51.325Z,1.70
2023-04-28T04:15:21.103Z,2.10
2023-04-28T04:17:51.636Z,2.00
2023-04-28T04:20:20.256Z,2.30
2023-04-28T04:22:47.406Z,1.80
2023-04-28T04:25:15.051Z,2.20
2023-04-28T04:27:42.655Z,1.90
2023-04-28T04:30:10.107Z,2.20
2023-04-28T04:32:38.709Z,1.90
2023-04-28T04:35:06.241Z,2.10
2023-04-28T04:37:35.358Z,2.00
2023-04-28T04:40:04.371Z,2.10
2023-04-28T04:42:39.412Z,2.70
2023-04-28T04:45:29.527Z,2.00
2023-04-28T04:47:57.137Z,1.90
2023-04-28T04:50:27.964Z,2.10
2023-04-28T04:52:59.638Z,2.30
2023-04-28T04:55:26.930Z,1.90
2023-04-28T04:57:55.417Z,2.30
2023-04-28T05:00:27.412Z,2.00
2023-04-28T05:02:56.865Z,1.70
2023-04-28T05:05:26.329Z,2.10
2023-04-28T05:08:10.924Z,2.00
2023-04-28T05:10:38.286Z,2.40
2023-04-28T05:13:06.043Z,2.20
2023-04-28T05:15:35.375Z,2.40
2023-04-28T05:18:22.208Z,2.10
2023-04-28T05:20:50.346Z,1.80
2023-04-28T05:23:21.760Z,2.10
2023-04-28T05:25:52.826Z,2.10
2023-04-28T05:28:27.328Z,2.30
2023-04-28T05:30:57.465Z,2.00
2023-04-28T05:33:27.308Z,2.00
2023-04-28T05:35:57.564Z,2.40
2023-04-28T05:38:25.931Z,2.10
2023-04-28T05:40:55.648Z,2.10
2023-04-28T05:43:23.079Z,2.00
2023-04-28T05:45:51.645Z,2.20
2023-04-28T05:48:19.958Z,2.20
2023-04-28T05:50:50.397Z,2.30
2023-04-28T05:53:19.207Z,2.00
2023-04-28T05:55:47.765Z,1.80
2023-04-28T05:58:15.017Z,2.20
2023-04-28T06:00:45.043Z,1.70
2023-04-28T06:03:15.137Z,2.10
2023-04-28T06:05:44.427Z,2.00
2023-04-28T06:08:12.940Z,2.00
2023-04-28T06:10:40.697Z,1.70
2023-04-28T06:13:08.844Z,2.20
2023-04-28T06:15:36.660Z,2.00
2023-04-28T06:18:06.664Z,2.20
2023-04-28T06:20:34.519Z,1.80
2023-04-28T06:23:05.150Z,2.70
2023-04-28T06:25:32.940Z,2.20
2023-04-28T06:28:00.160Z,2.00
2023-04-28T06:30:27.235Z,1.70
2023-04-28T06:32:58.034Z,2.10
2023-04-28T06:35:25.175Z,1.80
2023-04-28T06:37:52.128Z,1.80
2023-04-28T06:40:20.197Z,1.80
2023-04-28T06:42:58.626Z,2.20
2023-04-28T06:48:02.467Z,1.60
2023-04-28T06:50:29.593Z,1.50
2023-04-28T06:52:56.703Z,1.80
2023-04-28T06:55:23.994Z,1.60
2023-04-28T06:57:52.262Z,1.40
2023-04-28T07:00:21.834Z,1.60
2023-04-28T07:02:49.806Z,1.60
2023-04-28T07:05:17.323Z,1.90
2023-04-28T07:07:44.449Z,1.90
2023-04-28T07:10:11.845Z,1.60
2023-04-28T07:12:39.154Z,1.50
2023-04-28T07:15:07.507Z,1.60
2023-04-28T07:17:35.689Z,1.80
2023-04-28T07:20:03.391Z,1.70
2023-04-28T07:22:30.412Z,1.60
2023-04-28T07:24:57.646Z,1.50
2023-04-28T07:27:24.786Z,1.60
2023-04-28T07:29:51.956Z,1.50
2023-04-28T07:32:19.351Z,1.70
2023-04-28T07:34:46.642Z,1.50
2023-04-28T07:37:14.062Z,1.70
2023-04-28T07:39:42.074Z,1.50
2023-04-28T07:42:10.374Z,1.30
2023-04-28T07:44:37.513Z,1.70
2023-04-28T07:47:04.663Z,1.20
2023-04-28T07:49:31.913Z,1.50
2023-04-28T07:51:59.010Z,1.40
2023-04-28T07:54:26.280Z,1.30
2023-04-28T07:56:53.305Z,1.10
2023-04-28T07:59:20.283Z,1.30
2023-04-28T08:01:48.506Z,1.50
2023-04-28T08:04:16.019Z,1.40
2023-04-28T08:06:43.485Z,1.20
2023-04-28T08:09:11.473Z,1.20
2023-04-28T08:11:38.921Z,1.30
2023-04-28T08:14:06.171Z,1.50
2023-04-28T08:16:34.714Z,1.40
2023-04-28T08:19:04.074Z,1.40
2023-04-28T08:21:31.223Z,1.10
2023-04-28T08:23:58.418Z,1.20
2023-04-28T08:26:26.221Z,1.50
2023-04-28T08:28:53.490Z,1.30
2023-04-28T08:31:22.803Z,1.40
2023-04-28T08:33:51.485Z,1.40
2023-04-28T08:36:19.071Z,1.20
2023-04-28T08:38:46.473Z,1.40
2023-04-28T08:41:18.979Z,1.30
2023-04-28T08:43:46.032Z,1.20
2023-04-28T08:46:14.734Z,1.10
2023-04-28T08:48:46.428Z,1.60
2023-04-28T08:51:17.318Z,1.20
2023-04-28T08:56:43.313Z,1.30
2023-04-28T08:59:43.335Z,1.00
2023-04-28T09:02:10.715Z,1.40
2023-04-28T09:04:38.617Z,1.10
2023-04-28T09:07:12.934Z,1.30
2023-04-28T09:09:41.882Z,1.00
2023-04-28T09:12:22.756Z,1.50
2023-04-28T09:15:10.198Z,1.00
2023-04-28T09:17:51.281Z,1.00
2023-04-28T09:20:25.283Z,1.30
2023-04-28T09:22:53.656Z,1.10
2023-04-28T09:25:23.195Z,1.10
2023-04-28T09:27:50.476Z,1.00
2023-04-28T09:30:18.840Z,1.00
2023-04-28T09:32:46.250Z,0.90
2023-04-28T09:35:25.890Z,1.00
2023-04-28T09:37:59.508Z,1.10
2023-04-28T09:40:26.788Z,1.70
2023-04-28T09:42:55.031Z,1.40
2023-04-28T09:45:22.770Z,2.00
2023-04-28T09:47:49.967Z,1.60
2023-04-28T09:50:18.733Z,1.30
2023-04-28T09:52:57.456Z,1.20
2023-04-28T09:55:26.083Z,1.10
2023-04-28T09:57:55.205Z,1.30
2023-04-28T10:05:48.008Z,1.30
2023-04-28T10:08:15.062Z,1.40
2023-04-28T10:10:45.869Z,3.10
2023-04-28T10:13:13.212Z,7.40
2023-04-28T10:15:41.172Z,2.80
2023-04-28T10:18:08.304Z,4.90
2023-04-28T10:20:35.684Z,2.20
2023-04-28T10:23:31.675Z,1.10
2023-04-28T10:26:02.290Z,1.20
2023-04-28T10:28:30.189Z,0.90
2023-04-28T10:31:14.117Z,1.20
2023-04-28T10:33:41.911Z,1.10
2023-04-28T10:36:11.146Z,1.20
2023-04-28T10:39:13.311Z,2.30
2023-04-28T10:41:40.372Z,1.80
2023-04-28T10:44:29.309Z,1.30
2023-04-28T10:47:08.577Z,1.10
2023-04-28T10:49:57.830Z,1.40
2023-04-28T10:52:40.671Z,1.50
2023-04-28T10:55:30.122Z,1.30
2023-04-28T10:58:26.723Z,1.30
2023-04-28T11:00:54.757Z,2.30
2023-04-28T11:04:26.007Z,2.20
2023-04-28T11:07:15.905Z,1.10
2023-04-28T11:10:25.105Z,1.60
2023-04-28T11:13:37.287Z,1.20
2023-04-28T11:16:05.905Z,1.40
2023-04-28T11:18:55.872Z,1.30
2023-04-28T11:21:24.515Z,1.10
2023-04-28T11:23:52.866Z,1.50
2023-04-28T11:26:20.323Z,1.20
2023-04-28T11:28:56.109Z,0.90
2023-04-28T11:31:25.499Z,0.90
2023-04-28T11:34:15.811Z,0.90
2023-04-28T11:36:48.819Z,1.10
2023-04-28T11:39:19.887Z,1.00
2023-04-28T11:41:48.922Z,0.90
2023-04-28T11:44:24.663Z,1.10
2023-04-28T11:46:58.978Z,1.50
2023-04-28T11:49:31.826Z,1.00
2023-04-28T11:52:02.513Z,1.40
2023-04-28T11:54:30.889Z,1.10
2023-04-28T11:57:07.796Z,1.30
2023-04-28T11:59:35.728Z,1.10
2023-04-28T12:02:05.804Z,0.90
2023-04-28T12:04:40.709Z,1.00
2023-04-28T12:10:17.544Z,0.90
2023-04-28T12:12:51.888Z,1.10
2023-04-28T12:15:21.811Z,1.10
2023-04-28T12:17:51.753Z,1.20
2023-04-28T12:20:38.799Z,1.00
2023-04-28T12:23:08.164Z,1.00
2023-04-28T12:25:44.844Z,1.00
2023-04-28T12:28:13.328Z,1.00
2023-04-28T12:30:44.832Z,1.20
2023-04-28T12:33:28.695Z,1.00
2023-04-28T12:36:01.420Z,1.30
2023-04-28T12:38:28.950Z,1.10
2023-04-28T12:40:55.988Z,1.00
2023-04-28T12:43:24.346Z,1.00
2023-04-28T12:45:55.585Z,1.00
2023-04-28T12:48:25.689Z,0.90
2023-04-28T12:50:52.923Z,1.10
2023-04-28T12:53:21.438Z,1.00
2023-04-28T12:55:48.600Z,1.20
2023-04-28T12:58:21.267Z,1.00
2023-04-28T13:00:48.375Z,1.10
2023-04-28T13:03:16.093Z,1.30
2023-04-28T13:05:47.960Z,1.00
2023-04-28T13:08:17.571Z,1.10
2023-04-28T13:10:46.792Z,0.90
2023-04-28T13:13:26.826Z,0.80
2023-04-28T13:15:56.260Z,0.90
2023-04-28T13:18:30.486Z,0.90
2023-04-28T13:20:57.810Z,1.00
2023-04-28T13:23:25.387Z,0.90
2023-04-28T13:26:08.623Z,0.90
2023-04-28T13:28:39.202Z,1.00
2023-04-28T13:31:07.119Z,1.00
2023-04-28T13:33:34.349Z,1.10
2023-04-28T13:36:02.949Z,1.00
2023-04-28T13:38:30.071Z,1.10
2023-04-28T13:40:59.297Z,0.90
2023-04-28T13:43:27.948Z,1.00
2023-04-28T13:45:54.999Z,1.40
2023-04-28T13:48:25.546Z,1.30
2023-04-28T13:50:59.358Z,1.10
2023-04-28T13:53:27.717Z,1.30
2023-04-28T13:55:57.667Z,1.20
2023-04-28T13:58:25.837Z,0.90
2023-04-28T14:00:57.409Z,1.00
2023-04-28T14:03:26.510Z,1.20
2023-04-28T14:05:58.071Z,1.20
2023-04-28T14:08:27.123Z,1.20
2023-04-28T14:10:55.602Z,1.40
2023-04-28T14:13:22.746Z,0.90
2023-04-28T14:15:59.026Z,1.10
2023-04-28T14:18:29.863Z,1.20
2023-04-28T14:20:57.456Z,1.00
2023-04-28T14:23:25.003Z,1.10
2023-04-28T14:25:56.034Z,1.10
2023-04-28T14:28:23.893Z,1.20
2023-04-28T14:30:56.678Z,1.10
2023-04-28T14:33:24.470Z,1.00
2023-04-28T14:36:04.007Z,1.10
2023-04-28T14:38:32.011Z,1.20
2023-04-28T14:40:59.019Z,1.20
2023-04-28T14:43:32.581Z,1.20
2023-04-28T14:46:07.574Z,0.80
2023-04-28T14:48:52.812Z,1.20
2023-04-28T14:51:22.055Z,1.00
2023-04-28T14:53:51.678Z,1.10
2023-04-28T14:56:28.802Z,1.10
2023-04-28T14:59:29.773Z,1.30
2023-04-28T15:05:13.794Z,1.40
2023-04-28T15:07:41.290Z,1.30
2023-04-28T15:10:09.747Z,1.10
2023-04-28T15:12:38.774Z,1.00
2023-04-28T15:15:07.285Z,1.10
2023-04-28T15:17:35.824Z,0.90
2023-04-28T15:20:17.540Z,1.10
2023-04-28T15:22:47.145Z,1.10
2023-04-28T15:25:14.404Z,0.90
2023-04-28T15:33:09.038Z,1.10
2023-04-28T15:35:36.965Z,1.30
2023-04-28T15:38:12.256Z,1.30
2023-04-28T15:40:45.833Z,1.80
2023-04-28T15:43:13.630Z,1.50
2023-04-28T15:45:44.083Z,1.30
2023-04-28T15:48:12.463Z,0.90
2023-04-28T15:50:40.519Z,1.20
2023-04-28T15:53:10.150Z,1.30
2023-04-28T15:55:38.124Z,1.30
2023-04-28T15:58:05.149Z,1.20
2023-04-28T16:00:33.713Z,1.10
2023-04-28T16:03:04.523Z,1.10
2023-04-28T16:05:36.720Z,1.10
2023-04-28T16:08:05.414Z,0.90
2023-04-28T16:11:01.109Z,1.40
2023-04-28T16:13:49.163Z,0.90
2023-04-28T16:16:32.271Z,1.20
2023-04-28T16:18:59.721Z,1.10
2023-04-28T16:21:28.769Z,1.00
2023-04-28T16:23:56.301Z,1.20
2023-04-28T16:26:32.346Z,1.00
2023-04-28T16:28:59.569Z,1.10
2023-04-28T16:31:27.765Z,1.10
2023-04-28T16:33:56.049Z,1.40
2023-04-28T16:36:25.377Z,1.10
2023-04-28T16:38:54.005Z,1.30
2023-04-28T16:41:27.162Z,1.70
2023-04-28T16:44:18.487Z,1.40
2023-04-28T16:46:45.677Z,1.50
2023-04-28T16:49:13.183Z,1.40
2023-04-28T16:51:40.218Z,1.30
2023-04-28T16:54:07.309Z,1.20
2023-04-28T16:56:36.176Z,1.30
2023-04-28T16:59:03.335Z,1.20
2023-04-28T17:01:31.780Z,1.30
2023-04-28T17:03:59.355Z,1.60
2023-04-28T17:06:28.174Z,1.60
2023-04-28T17:08:55.376Z,1.30
2023-04-28T17:11:22.816Z,1.40
2023-04-28T17:13:52.115Z,1.20
2023-04-28T17:16:23.536Z,1.30
2023-04-28T17:18:53.490Z,1.40
2023-04-28T17:21:21.663Z,1.30
2023-04-28T17:23:50.454Z,1.70
2023-04-28T17:26:25.943Z,1.50
2023-04-28T17:28:59.036Z,1.70
2023-04-28T17:31:27.086Z,1.80
2023-04-28T17:33:57.115Z,1.70
2023-04-28T17:36:34.080Z,1.60
2023-04-28T17:39:16.530Z,1.50
2023-04-28T17:41:48.035Z,1.60
2023-04-28T17:44:15.120Z,1.90
2023-04-28T17:46:43.793Z,1.50
2023-04-28T17:49:26.723Z,2.10
2023-04-28T17:51:55.530Z,2.30
2023-04-28T17:54:34.150Z,2.00
2023-04-28T17:57:09.537Z,2.00
2023-04-28T18:00:01.661Z,2.00
2023-04-28T18:02:41.427Z,1.80
2023-04-28T18:05:09.924Z,1.70
2023-04-28T18:07:37.360Z,2.70
2023-04-28T18:10:11.601Z,1.90
2023-04-28T18:16:00.375Z,2.10
2023-04-28T18:18:39.036Z,2.20
2023-04-28T18:21:09.441Z,1.80
2023-04-28T18:23:40.679Z,2.20
2023-04-28T18:26:08.578Z,2.40
2023-04-28T18:28:43.058Z,2.50
2023-04-28T18:31:16.356Z,2.10
2023-04-28T18:33:44.947Z,1.90
2023-04-28T18:36:35.943Z,2.10
2023-04-28T18:39:06.280Z,2.10
2023-04-28T18:44:14.897Z,2.30
2023-04-28T18:46:46.157Z,2.50
2023-04-28T18:49:24.419Z,2.50
2023-04-28T18:51:53.504Z,2.20
2023-04-28T18:55:17.382Z,2.40
2023-04-28T18:57:45.586Z,2.30
2023-04-28T19:00:18.794Z,2.70
2023-04-28T19:02:51.509Z,2.60
2023-04-28T19:09:52.730Z,2.50
2023-04-28T19:12:20.214Z,2.40
2023-04-28T20:16:41.866Z,3.00
2023-04-28T20:19:10.433Z,3.60
2023-04-28T20:21:45.388Z,2.70
2023-04-28T20:24:41.003Z,3.20
2023-04-28T20:27:08.114Z,3.50
2023-04-28T20:29:36.699Z,3.40
2023-04-28T20:32:03.823Z,3.40
2023-04-28T20:34:33.108Z,3.30
2023-04-28T20:37:02.804Z,3.20
2023-04-28T20:39:29.661Z,3.30
2023-04-28T20:41:56.667Z,3.20
2023-04-28T20:44:24.186Z,2.90
2023-04-28T20:46:51.320Z,2.80
2023-04-28T20:49:18.824Z,3.10
2023-04-28T20:51:45.776Z,3.00
2023-04-28T20:54:14.306Z,3.30
2023-04-28T20:56:42.572Z,2.90
2023-04-28T20:59:10.715Z,3.50
2023-04-28T21:01:37.894Z,3.30
2023-04-28T21:04:05.770Z,3.70
2023-04-28T21:06:32.921Z,3.30
2023-04-28T21:09:01.042Z,3.60
2023-04-28T21:11:29.551Z,3.10
2023-04-28T21:13:57.906Z,3.50
2023-04-28T21:16:26.072Z,3.70
2023-04-28T21:19:07.921Z,4.10
2023-04-28T21:21:35.380Z,3.50
2023-04-28T21:24:05.376Z,4.30
2023-04-28T21:26:32.577Z,4.20
2023-04-28T21:28:59.941Z,4.10
2023-04-28T21:31:27.850Z,4.10
2023-04-28T21:33:54.768Z,3.50
2023-04-28T21:36:21.618Z,3.90
2023-04-28T21:38:48.702Z,3.90
2023-04-28T21:41:16.406Z,4.20
2023-04-28T21:43:43.188Z,4.40
2023-04-28T21:46:10.488Z,4.60
2023-04-28T21:48:37.341Z,4.00
2023-04-28T21:51:04.893Z,4.50
2023-04-28T21:53:31.871Z,3.90
2023-04-28T21:55:58.801Z,4.20
2023-04-28T21:58:25.731Z,4.50
2023-04-28T22:00:52.638Z,3.80
2023-04-28T22:03:20.161Z,4.20
2023-04-28T22:05:47.278Z,4.20
2023-04-28T22:08:15.683Z,3.60
2023-04-28T22:10:45.901Z,4.20
2023-04-28T22:13:13.959Z,3.50
2023-04-28T22:15:41.816Z,4.00
2023-04-28T22:18:08.717Z,3.90
2023-04-28T22:20:38.013Z,3.80
2023-04-28T22:23:05.729Z,4.10
2023-04-28T22:25:34.480Z,3.70
2023-04-28T22:28:01.349Z,4.00
2023-04-28T22:30:30.789Z,4.30
2023-04-28T22:32:57.687Z,3.70
2023-04-28T22:35:24.821Z,3.80
2023-04-28T22:37:52.303Z,3.50
2023-04-28T22:40:19.192Z,3.80
2023-04-28T22:42:46.071Z,3.70
2023-04-28T22:45:13.005Z,3.80
2023-04-28T22:47:41.791Z,3.50
2023-04-28T22:50:10.926Z,3.80
2023-04-28T22:52:39.965Z,3.40
2023-04-28T22:55:09.134Z,3.20
2023-04-28T22:57:37.139Z,3.80
2023-04-28T23:00:05.607Z,3.50
2023-04-28T23:02:36.108Z,3.70
2023-04-28T23:05:03.710Z,3.80
2023-04-28T23:07:31.331Z,3.90
2023-04-28T23:10:00.218Z,3.80
2023-04-28T23:12:28.494Z,5.20
2023-04-28T23:14:56.225Z,5.40
2023-04-28T23:17:24.256Z,5.80
2023-04-28T23:19:51.719Z,5.60
2023-04-28T23:22:22.748Z,5.60
2023-04-28T23:24:51.344Z,6.50
2023-04-28T23:27:20.442Z,6.40
2023-04-28T23:29:48.816Z,6.20
2023-04-28T23:32:17.227Z,5.70
2023-04-28T23:34:44.843Z,4.60
2023-04-28T23:37:14.152Z,5.80
2023-04-28T23:39:41.375Z,6.00
2023-04-28T23:42:08.432Z,6.20
2023-04-28T23:44:35.721Z,5.50
2023-04-28T23:47:02.740Z,5.70
2023-04-28T23:49:30.031Z,5.90
2023-04-28T23:51:59.135Z,5.60
2023-04-28T23:54:26.248Z,6.10
2023-04-28T23:56:53.243Z,5.70
2023-04-28T23:59:20.558Z,5.90
